createdAt,value
2022-09-11T00:00:25.637Z,99.99
2022-09-11T00:01:25.593Z,99.99
2022-09-11T00:02:25.601Z,99.99
2022-09-11T00:03:25.566Z,99.99
2022-09-11T00:04:25.550Z,99.99
2022-09-11T00:05:25.587Z,99.99
2022-09-11T00:06:29.664Z,99.99
2022-09-11T00:07:25.515Z,99.99
2022-09-11T00:08:25.506Z,99.99
2022-09-11T00:09:25.476Z,99.99
2022-09-11T00:10:25.513Z,99.99
2022-09-11T00:11:25.475Z,99.99
2022-09-11T00:12:25.454Z,99.99
2022-09-11T00:13:25.455Z,99.99
2022-09-11T00:14:25.426Z,99.99
2022-09-11T00:15:25.448Z,99.99
2022-09-11T00:16:25.421Z,99.99
2022-09-11T00:17:25.377Z,99.99
2022-09-11T00:18:25.366Z,99.99
2022-09-11T00:19:25.400Z,99.99
2022-09-11T00:20:25.362Z,99.99
2022-09-11T00:21:25.320Z,99.99
2022-09-11T00:22:25.359Z,99.99
2022-09-11T00:23:25.321Z,99.99
2022-09-11T00:24:25.293Z,99.99
2022-09-11T00:25:25.325Z,99.99
2022-09-11T00:26:25.265Z,99.99
2022-09-11T00:27:25.258Z,99.99
2022-09-11T00:28:25.244Z,99.99
2022-09-11T00:29:25.222Z,99.99
2022-09-11T00:30:25.225Z,99.99
2022-09-11T00:31:25.279Z,99.99
2022-09-11T00:32:25.183Z,99.99
2022-09-11T00:33:25.165Z,99.99
2022-09-11T00:34:25.142Z,99.99
2022-09-11T00:35:25.158Z,99.99
2022-09-11T00:36:25.132Z,99.99
2022-09-11T00:37:25.156Z,99.99
2022-09-11T00:38:25.104Z,99.99
2022-09-11T00:39:25.103Z,99.99
2022-09-11T00:40:25.088Z,99.99
2022-09-11T00:41:25.075Z,99.99
2022-09-11T00:42:25.049Z,99.99
2022-09-11T00:43:25.040Z,99.99
2022-09-11T00:44:25.022Z,99.99
2022-09-11T00:45:25.024Z,99.99
2022-09-11T00:46:25.019Z,99.99
2022-09-11T00:47:25.026Z,99.99
2022-09-11T00:48:24.985Z,99.99
2022-09-11T00:49:24.971Z,99.99
2022-09-11T00:50:24.945Z,99.99
2022-09-11T00:51:24.944Z,99.99
2022-09-11T00:52:24.927Z,99.99
2022-09-11T00:53:24.896Z,99.99
2022-09-11T00:54:24.884Z,99.99
2022-09-11T00:55:24.892Z,99.99
2022-09-11T00:56:24.850Z,99.99
2022-09-11T00:57:24.851Z,99.99
2022-09-11T00:58:24.833Z,99.99
2022-09-11T00:59:24.827Z,99.99
2022-09-11T01:00:24.812Z,99.99
2022-09-11T01:01:24.783Z,99.99
2022-09-11T01:02:27.422Z,99.99
2022-09-11T01:03:24.766Z,99.99
2022-09-11T01:04:24.761Z,99.99
2022-09-11T01:05:24.751Z,99.99
2022-09-11T01:06:24.720Z,99.99
2022-09-11T01:07:24.703Z,99.99
2022-09-11T01:08:24.687Z,99.99
2022-09-11T01:09:24.677Z,99.99
2022-09-11T01:10:24.687Z,99.99
2022-09-11T01:11:24.654Z,99.99
2022-09-11T01:12:24.636Z,99.99
2022-09-11T01:13:24.633Z,99.99
2022-09-11T01:14:24.603Z,99.99
2022-09-11T01:15:24.635Z,99.99
2022-09-11T01:16:24.640Z,99.99
2022-09-11T01:17:24.575Z,99.99
2022-09-11T01:18:24.546Z,99.99
2022-09-11T01:19:24.548Z,99.99
2022-09-11T01:20:24.545Z,99.99
2022-09-11T01:21:24.512Z,99.99
2022-09-11T01:22:24.551Z,99.99
2022-09-11T01:23:24.493Z,99.99
2022-09-11T01:24:24.465Z,99.99
2022-09-11T01:25:24.479Z,99.99
2022-09-11T01:26:24.444Z,99.99
2022-09-11T01:27:24.558Z,99.99
2022-09-11T01:28:24.417Z,99.99
2022-09-11T01:29:24.410Z,99.99
2022-09-11T01:30:24.417Z,99.99
2022-09-11T01:31:24.407Z,99.99
2022-09-11T01:32:24.368Z,99.99
2022-09-11T01:33:24.360Z,99.99
2022-09-11T01:34:24.359Z,99.99
2022-09-11T01:35:24.348Z,99.99
2022-09-11T01:36:24.329Z,99.99
2022-09-11T01:37:24.309Z,99.99
2022-09-11T01:38:24.290Z,99.99
2022-09-11T01:39:24.302Z,99.99
2022-09-11T01:40:24.271Z,99.99
2022-09-11T01:41:24.254Z,99.99
2022-09-11T01:42:24.228Z,99.99
2022-09-11T01:43:24.242Z,99.99
2022-09-11T01:44:24.200Z,99.99
2022-09-11T01:45:24.273Z,99.99
2022-09-11T01:46:24.174Z,99.99
2022-09-11T01:47:24.170Z,99.99
2022-09-11T01:48:24.162Z,99.99
2022-09-11T01:49:24.150Z,99.99
2022-09-11T01:50:24.180Z,99.99
2022-09-11T01:51:24.103Z,99.99
2022-09-11T01:54:24.754Z,99.99
2022-09-11T01:55:25.766Z,99.99
2022-09-11T01:56:26.448Z,99.99
2022-09-11T01:57:25.694Z,99.99
2022-09-11T01:58:25.699Z,99.99
2022-09-11T01:59:25.710Z,99.99
2022-09-11T02:00:25.770Z,99.99
2022-09-11T02:01:25.647Z,99.99
2022-09-11T02:02:25.669Z,99.99
2022-09-11T02:03:25.638Z,99.99
2022-09-11T02:04:25.601Z,99.99
2022-09-11T02:09:59.775Z,99.99
2022-09-11T02:11:00.770Z,99.99
2022-09-11T02:12:00.729Z,99.99
2022-09-11T02:13:00.720Z,99.99
2022-09-11T02:14:00.710Z,99.99
2022-09-11T02:15:00.717Z,99.99
2022-09-11T02:16:00.720Z,99.99
2022-09-11T02:17:00.677Z,99.99
2022-09-11T02:18:00.669Z,99.99
2022-09-11T02:19:00.645Z,99.99
2022-09-11T02:20:00.644Z,99.99
2022-09-11T02:21:00.625Z,99.99
2022-09-11T02:22:00.623Z,99.99
2022-09-11T02:23:00.583Z,99.99
2022-09-11T02:24:00.575Z,99.99
2022-09-11T02:25:00.579Z,99.99
2022-09-11T02:26:00.542Z,99.99
2022-09-11T02:27:00.541Z,99.99
2022-09-11T02:28:00.515Z,99.99
2022-09-11T02:29:00.507Z,99.99
2022-09-11T02:30:00.523Z,99.99
2022-09-11T02:31:00.483Z,99.99
2022-09-11T02:32:00.465Z,99.99
2022-09-11T02:33:00.442Z,99.99
2022-09-11T02:34:00.438Z,99.99
2022-09-11T02:35:00.473Z,99.99
2022-09-11T02:36:00.409Z,99.99
2022-09-11T02:37:00.398Z,99.99
2022-09-11T02:38:00.371Z,99.99
2022-09-11T02:39:00.363Z,99.99
2022-09-11T02:40:00.492Z,99.99
2022-09-11T02:41:00.350Z,99.99
2022-09-11T02:42:00.327Z,99.99
2022-09-11T02:43:00.321Z,99.99
2022-09-11T02:44:00.292Z,99.99
2022-09-11T02:45:00.296Z,99.99
2022-09-11T02:46:00.344Z,99.99
2022-09-11T02:47:00.258Z,99.99
2022-09-11T02:48:00.243Z,99.99
2022-09-11T02:49:00.243Z,99.99
2022-09-11T02:50:00.243Z,99.99
2022-09-11T02:51:00.240Z,99.99
2022-09-11T02:52:00.183Z,99.99
2022-09-11T02:54:21.759Z,99.99
2022-09-11T02:55:22.792Z,99.99
2022-09-11T02:56:22.737Z,99.99
2022-09-11T02:57:22.769Z,99.99
2022-09-11T02:58:22.717Z,99.99
2022-09-11T02:59:22.701Z,99.99
2022-09-11T03:00:22.703Z,99.99
2022-09-11T03:01:22.671Z,99.99
2022-09-11T03:02:22.673Z,99.99
2022-09-11T03:03:22.641Z,99.99
2022-09-11T03:04:22.676Z,99.99
2022-09-11T03:05:22.671Z,99.99
2022-09-11T03:06:22.593Z,99.99
2022-09-11T03:07:22.591Z,99.99
2022-09-11T03:08:22.571Z,99.99
2022-09-11T03:09:22.572Z,99.99
2022-09-11T03:10:22.607Z,99.99
2022-09-11T03:11:22.528Z,99.99
2022-09-11T03:12:22.524Z,99.99
2022-09-11T03:13:22.500Z,99.99
2022-09-11T03:14:22.486Z,99.99
2022-09-11T03:15:22.497Z,99.99
2022-09-11T03:16:22.523Z,99.99
2022-09-11T03:17:22.457Z,99.99
2022-09-11T03:18:22.439Z,99.99
2022-09-11T03:19:22.435Z,99.99
2022-09-11T03:20:22.445Z,99.99
2022-09-11T03:21:22.407Z,99.99
2022-09-11T03:22:22.391Z,99.99
2022-09-11T03:23:22.369Z,99.99
2022-09-11T03:24:22.345Z,99.99
2022-09-11T03:25:22.347Z,99.99
2022-09-11T03:26:22.336Z,99.99
2022-09-11T03:27:22.311Z,99.99
2022-09-11T03:28:22.294Z,99.99
2022-09-11T03:29:22.285Z,99.99
2022-09-11T03:30:22.294Z,99.99
2022-09-11T03:31:22.320Z,99.99
2022-09-11T03:32:22.238Z,99.99
2022-09-11T03:33:22.222Z,99.99
2022-09-11T03:34:22.208Z,99.99
2022-09-11T03:35:22.234Z,99.99
2022-09-11T03:36:22.187Z,99.99
2022-09-11T03:37:22.169Z,99.99
2022-09-11T03:38:22.159Z,99.99
2022-09-11T03:39:22.156Z,99.99
2022-09-11T03:40:22.140Z,99.99
2022-09-11T03:41:22.130Z,99.99
2022-09-11T03:42:22.118Z,99.99
2022-09-11T03:43:22.092Z,99.99
2022-09-11T03:44:22.098Z,99.99
2022-09-11T03:45:22.171Z,99.99
2022-09-11T03:46:22.041Z,99.99
2022-09-11T03:47:22.037Z,99.99
2022-09-11T03:48:22.019Z,99.99
2022-09-11T03:49:22.015Z,99.99
2022-09-11T03:50:22.005Z,99.99
2022-09-11T03:51:21.978Z,99.99
2022-09-11T04:00:01.272Z,99.99
2022-09-11T04:01:02.284Z,99.99
2022-09-11T04:02:02.279Z,99.99
2022-09-11T04:03:02.212Z,99.99
2022-09-11T04:04:02.194Z,99.99
2022-09-11T04:05:02.199Z,99.99
2022-09-11T04:06:02.176Z,99.99
2022-09-11T04:07:02.160Z,99.99
2022-09-11T04:08:02.166Z,99.99
2022-09-11T04:09:02.140Z,99.99
2022-09-11T04:10:02.134Z,99.99
2022-09-11T04:11:02.109Z,99.99
2022-09-11T04:12:02.083Z,99.99
2022-09-11T04:13:02.081Z,99.99
2022-09-11T04:14:02.050Z,99.99
2022-09-11T04:15:02.050Z,99.99
2022-09-11T04:16:02.061Z,99.99
2022-09-11T04:17:02.019Z,99.99
2022-09-11T04:18:05.503Z,99.99
2022-09-11T04:19:01.990Z,99.99
2022-09-11T04:20:01.988Z,99.99
2022-09-11T04:21:01.980Z,99.99
2022-09-11T04:22:01.951Z,99.99
2022-09-11T04:23:01.933Z,99.99
2022-09-11T04:24:01.920Z,99.99
2022-09-11T04:25:01.937Z,99.99
2022-09-11T04:26:01.888Z,99.99
2022-09-11T04:27:01.890Z,99.99
2022-09-11T04:28:01.865Z,99.99
2022-09-11T04:29:01.862Z,99.99
2022-09-11T04:30:01.851Z,99.99
2022-09-11T04:31:01.861Z,99.99
2022-09-11T04:32:01.809Z,99.99
2022-09-11T04:33:01.799Z,99.99
2022-09-11T04:34:01.784Z,99.99
2022-09-11T04:35:01.774Z,99.99
2022-09-11T04:36:01.785Z,99.99
2022-09-11T04:37:01.693Z,99.99
2022-09-11T04:38:01.724Z,99.99
2022-09-11T04:39:01.762Z,99.99
2022-09-11T04:40:01.862Z,99.99
2022-09-11T04:41:01.680Z,99.99
2022-09-11T04:42:01.644Z,99.99
2022-09-11T04:43:01.687Z,99.99
2022-09-11T04:44:05.296Z,99.99
2022-09-11T04:45:01.685Z,99.99
2022-09-11T04:46:01.714Z,99.99
2022-09-11T04:47:01.551Z,99.99
2022-09-11T04:48:01.536Z,99.99
2022-09-11T04:49:01.592Z,99.99
2022-09-11T04:50:01.581Z,99.99
2022-09-11T04:51:01.533Z,99.99
2022-09-11T04:52:01.484Z,99.99
2022-09-11T04:53:01.477Z,99.99
2022-09-11T04:54:01.454Z,99.99
2022-09-11T04:55:01.465Z,99.99
2022-09-11T04:56:01.436Z,99.99
2022-09-11T04:57:01.429Z,99.99
2022-09-11T04:58:01.407Z,99.99
2022-09-11T04:59:01.403Z,99.99
2022-09-11T05:00:01.408Z,99.99
2022-09-11T05:01:01.435Z,99.99
2022-09-11T05:02:01.399Z,99.99
2022-09-11T05:03:01.352Z,99.99
2022-09-11T05:04:01.326Z,99.99
2022-09-11T05:05:01.328Z,99.99
2022-09-11T05:06:01.287Z,99.99
2022-09-11T05:07:01.285Z,99.99
2022-09-11T05:08:01.264Z,99.99
2022-09-11T05:09:01.263Z,99.99
2022-09-11T05:10:01.268Z,99.99
2022-09-11T05:11:01.417Z,99.99
2022-09-11T05:12:01.212Z,99.99
2022-09-11T05:13:01.263Z,99.99
2022-09-11T05:14:01.189Z,99.99
2022-09-11T05:15:01.202Z,99.99
2022-09-11T05:16:01.234Z,99.99
2022-09-11T05:17:01.156Z,99.99
2022-09-11T05:18:01.128Z,99.99
2022-09-11T05:19:01.134Z,99.99
2022-09-11T05:20:01.131Z,99.99
2022-09-11T05:21:01.116Z,99.99
2022-09-11T05:22:01.073Z,99.99
2022-09-11T05:23:01.075Z,99.99
2022-09-11T05:24:01.051Z,99.99
2022-09-11T05:25:01.057Z,99.99
2022-09-11T05:26:01.020Z,99.99
2022-09-11T05:27:01.007Z,99.99
2022-09-11T05:28:01.009Z,99.99
2022-09-11T05:29:00.992Z,99.99
2022-09-11T05:30:00.986Z,99.99
2022-09-11T05:31:00.955Z,99.99
2022-09-11T05:32:00.943Z,99.99
2022-09-11T05:33:00.932Z,99.99
2022-09-11T05:34:00.924Z,99.99
2022-09-11T05:35:00.925Z,99.99
2022-09-11T05:36:00.880Z,99.99
2022-09-11T05:37:00.885Z,99.99
2022-09-11T05:38:00.860Z,99.99
2022-09-11T05:39:00.852Z,99.99
2022-09-11T05:40:00.891Z,99.99
2022-09-11T05:41:00.825Z,99.99
2022-09-11T05:42:00.821Z,99.99
2022-09-11T05:43:00.800Z,99.99
2022-09-11T05:44:00.781Z,99.99
2022-09-11T05:45:00.802Z,99.99
2022-09-11T05:46:00.877Z,99.99
2022-09-11T05:47:00.749Z,99.99
2022-09-11T05:48:00.728Z,99.99
2022-09-11T05:49:00.719Z,99.99
2022-09-11T05:50:00.718Z,99.99
2022-09-11T05:51:00.705Z,99.99
2022-09-11T05:52:00.673Z,99.99
2022-09-11T05:59:59.943Z,99.99
2022-09-11T06:01:00.920Z,99.99
2022-09-11T06:02:00.881Z,99.99
2022-09-11T06:03:00.844Z,99.99
2022-09-11T06:04:00.838Z,99.99
2022-09-11T06:05:00.839Z,99.99
2022-09-11T06:06:00.809Z,99.99
2022-09-11T06:07:00.798Z,99.99
2022-09-11T06:08:00.780Z,99.99
2022-09-11T06:09:00.758Z,99.99
2022-09-11T06:10:03.151Z,99.99
2022-09-11T06:11:00.737Z,99.99
2022-09-11T06:12:00.733Z,99.99
2022-09-11T06:13:00.705Z,99.99
2022-09-11T06:14:00.711Z,99.99
2022-09-11T06:15:00.718Z,99.99
2022-09-11T06:16:00.670Z,99.99
2022-09-11T06:17:00.689Z,99.99
2022-09-11T06:18:00.641Z,99.99
2022-09-11T06:19:00.645Z,99.99
2022-09-11T06:20:00.642Z,99.99
2022-09-11T06:21:00.598Z,99.99
2022-09-11T06:22:00.596Z,99.99
2022-09-11T06:23:00.578Z,99.99
2022-09-11T06:24:00.562Z,99.99
2022-09-11T06:25:00.566Z,99.99
2022-09-11T06:26:00.537Z,99.99
2022-09-11T06:27:00.519Z,99.99
2022-09-11T06:28:00.514Z,99.99
2022-09-11T06:29:00.510Z,99.99
2022-09-11T06:30:00.511Z,99.99
2022-09-11T06:31:00.510Z,99.99
2022-09-11T06:32:00.444Z,99.99
2022-09-11T06:33:00.442Z,99.99
2022-09-11T06:34:00.449Z,99.99
2022-09-11T06:35:00.415Z,99.99
2022-09-11T06:36:00.402Z,99.99
2022-09-11T06:37:00.386Z,99.99
2022-09-11T06:38:00.382Z,99.99
2022-09-11T06:39:00.382Z,99.99
2022-09-11T06:40:00.449Z,99.99
2022-09-11T06:41:00.351Z,99.99
2022-09-11T06:42:00.333Z,99.99
2022-09-11T06:43:00.317Z,99.99
2022-09-11T06:44:00.321Z,99.99
2022-09-11T06:45:00.277Z,99.99
2022-09-11T06:46:00.296Z,99.99
2022-09-11T06:47:00.256Z,99.99
2022-09-11T06:48:00.244Z,99.99
2022-09-11T06:49:00.247Z,99.99
2022-09-11T06:50:00.214Z,99.99
2022-09-11T06:51:00.191Z,99.99
2022-09-11T06:52:00.186Z,99.99
2022-09-11T06:59:59.421Z,99.99
2022-09-11T07:01:00.489Z,99.99
2022-09-11T07:02:00.482Z,99.99
2022-09-11T07:03:00.356Z,99.99
2022-09-11T07:04:00.359Z,99.99
2022-09-11T07:05:00.315Z,99.99
2022-09-11T07:06:00.311Z,99.99
2022-09-11T07:07:00.284Z,99.99
2022-09-11T07:08:00.286Z,99.99
2022-09-11T07:09:00.276Z,99.99
2022-09-11T07:10:00.288Z,99.99
2022-09-11T07:11:00.235Z,99.99
2022-09-11T07:12:00.226Z,99.99
2022-09-11T07:13:00.205Z,99.99
2022-09-11T07:14:00.224Z,99.99
2022-09-11T07:15:00.179Z,99.99
2022-09-11T07:16:00.176Z,99.99
2022-09-11T07:17:00.162Z,99.99
2022-09-11T07:18:00.157Z,99.99
2022-09-11T07:19:00.152Z,99.99
2022-09-11T07:20:00.146Z,99.99
2022-09-11T07:21:00.114Z,99.99
2022-09-11T07:22:00.108Z,99.99
2022-09-11T07:23:00.076Z,99.99
2022-09-11T07:24:00.104Z,99.99
2022-09-11T07:25:00.066Z,99.99
2022-09-11T07:26:00.055Z,99.99
2022-09-11T07:27:00.024Z,99.99
2022-09-11T07:28:00.024Z,99.99
2022-09-11T07:29:00.031Z,99.99
2022-09-11T07:29:59.994Z,99.99
2022-09-11T07:31:00.020Z,99.99
2022-09-11T07:31:59.970Z,99.99
2022-09-11T07:32:59.961Z,99.99
2022-09-11T07:33:59.951Z,99.99
2022-09-11T07:34:59.917Z,99.99
2022-09-11T07:35:59.905Z,99.99
2022-09-11T07:36:59.886Z,99.99
2022-09-11T07:37:59.876Z,99.99
2022-09-11T07:38:59.885Z,99.99
2022-09-11T07:39:59.890Z,99.99
2022-09-11T07:40:59.835Z,99.99
2022-09-11T07:41:59.821Z,99.99
2022-09-11T07:42:59.809Z,99.99
2022-09-11T07:43:59.802Z,99.99
2022-09-11T07:44:59.805Z,99.99
2022-09-11T07:45:59.799Z,99.99
2022-09-11T07:46:59.762Z,99.99
2022-09-11T07:47:59.748Z,99.99
2022-09-11T07:48:59.730Z,99.99
2022-09-11T07:49:59.739Z,99.99
2022-09-11T07:50:59.724Z,99.99
2022-09-11T07:51:59.711Z,99.99
2022-09-11T07:59:58.945Z,99.99
2022-09-11T08:00:59.941Z,99.99
2022-09-11T08:01:59.931Z,99.99
2022-09-11T08:02:59.948Z,99.99
2022-09-11T08:03:59.846Z,99.99
2022-09-11T08:04:59.863Z,99.99
2022-09-11T08:10:16.379Z,99.99
2022-09-11T08:10:54.909Z,99.99
2022-09-11T08:11:54.889Z,99.99
2022-09-11T08:12:59.347Z,99.99
2022-09-11T08:13:54.889Z,99.99
2022-09-11T08:14:54.867Z,99.99
2022-09-11T08:15:54.855Z,99.99
2022-09-11T08:16:54.818Z,99.99
2022-09-11T08:17:54.812Z,99.99
2022-09-11T08:18:54.797Z,99.99
2022-09-11T08:19:54.810Z,99.99
2022-09-11T08:20:54.766Z,99.99
2022-09-11T08:21:54.768Z,99.99
2022-09-11T08:22:54.780Z,99.99
2022-09-11T08:23:54.723Z,99.99
2022-09-11T08:24:54.738Z,99.99
2022-09-11T08:25:54.720Z,99.99
2022-09-11T08:26:54.683Z,99.99
2022-09-11T08:27:54.671Z,99.99
2022-09-11T08:28:54.650Z,99.99
2022-09-11T08:29:54.671Z,99.99
2022-09-11T08:30:54.653Z,99.99
2022-09-11T08:31:56.365Z,99.99
2022-09-11T08:32:54.611Z,99.99
2022-09-11T08:33:54.592Z,99.99
2022-09-11T08:34:54.605Z,99.99
2022-09-11T08:35:54.581Z,99.99
2022-09-11T08:36:54.556Z,99.99
2022-09-11T08:37:55.163Z,99.99
2022-09-11T08:38:54.520Z,99.99
2022-09-11T08:39:54.557Z,99.99
2022-09-11T08:40:54.495Z,99.99
2022-09-11T08:41:54.484Z,99.99
2022-09-11T08:42:54.466Z,99.99
2022-09-11T08:43:54.449Z,99.99
2022-09-11T08:44:54.459Z,99.99
2022-09-11T08:45:54.450Z,99.99
2022-09-11T08:46:54.417Z,99.99
2022-09-11T08:47:54.413Z,99.99
2022-09-11T08:48:54.386Z,99.99
2022-09-11T08:49:54.388Z,99.99
2022-09-11T08:50:54.362Z,99.99
2022-09-11T08:51:54.371Z,99.99
2022-09-11T08:52:54.323Z,99.99
2022-09-11T08:53:54.320Z,99.99
2022-09-11T08:54:54.316Z,99.99
2022-09-11T08:55:54.319Z,99.99
2022-09-11T08:56:54.275Z,99.99
2022-09-11T08:57:54.267Z,99.99
2022-09-11T08:58:54.243Z,99.99
2022-09-11T08:59:54.246Z,99.99
2022-09-11T09:00:54.260Z,99.99
2022-09-11T09:01:54.248Z,99.99
2022-09-11T09:02:54.188Z,99.99
2022-09-11T09:03:54.182Z,99.99
2022-09-11T09:04:54.177Z,99.99
2022-09-11T09:05:54.150Z,99.99
2022-09-11T09:06:54.139Z,99.99
2022-09-11T09:07:54.129Z,99.99
2022-09-11T09:08:54.119Z,99.99
2022-09-11T09:09:54.147Z,99.99
2022-09-11T09:10:54.085Z,99.99
2022-09-11T09:11:54.069Z,99.99
2022-09-11T09:12:54.056Z,99.99
2022-09-11T09:13:54.060Z,99.99
2022-09-11T09:14:54.037Z,99.99
2022-09-11T09:15:54.061Z,99.99
2022-09-11T09:16:54.005Z,99.99
2022-09-11T09:17:54.013Z,99.99
2022-09-11T09:18:53.972Z,99.99
2022-09-11T09:19:53.980Z,99.99
2022-09-11T09:20:53.943Z,99.99
2022-09-11T09:21:54.026Z,99.99
2022-09-11T09:22:53.913Z,99.99
2022-09-11T09:23:53.920Z,99.99
2022-09-11T09:24:53.904Z,99.99
2022-09-11T09:25:53.880Z,99.99
2022-09-11T09:26:53.868Z,99.99
2022-09-11T09:27:53.879Z,99.99
2022-09-11T09:28:53.833Z,99.99
2022-09-11T09:29:53.846Z,99.99
2022-09-11T09:30:53.846Z,99.99
2022-09-11T09:31:53.799Z,99.93
2022-09-11T09:32:53.785Z,99.62
2022-09-11T09:33:53.776Z,99.32
2022-09-11T09:34:53.782Z,99.32
2022-09-11T09:35:53.745Z,99.18
2022-09-11T09:36:53.728Z,99.27
2022-09-11T09:37:53.733Z,98.87
2022-09-11T09:38:53.704Z,98.42
2022-09-11T09:39:53.755Z,98.32
2022-09-11T09:40:53.676Z,97.91
2022-09-11T09:41:53.678Z,96.80
2022-09-11T09:42:53.650Z,96.10
2022-09-11T09:43:53.654Z,96.20
2022-09-11T09:44:53.746Z,96.50
2022-09-11T09:45:53.656Z,96.40
2022-09-11T09:46:53.599Z,96.10
2022-09-11T09:47:53.596Z,96.05
2022-09-11T09:48:53.596Z,95.85
2022-09-11T09:49:53.552Z,95.25
2022-09-11T09:50:53.558Z,94.84
2022-09-11T09:51:53.536Z,95.14
2022-09-11T09:52:53.516Z,95.14
2022-09-11T09:53:53.540Z,95.04
2022-09-11T09:54:53.501Z,95.25
2022-09-11T09:55:53.481Z,95.30
2022-09-11T09:56:53.466Z,94.80
2022-09-11T09:57:53.463Z,94.09
2022-09-11T09:58:53.438Z,93.79
2022-09-11T09:59:53.443Z,93.99
2022-09-11T10:00:53.408Z,94.29
2022-09-11T10:01:53.468Z,94.59
2022-09-11T10:02:53.387Z,94.49
2022-09-11T10:03:53.377Z,94.49
2022-09-11T10:04:53.376Z,94.70
2022-09-11T10:05:53.359Z,94.59
2022-09-11T10:06:53.331Z,94.29
2022-09-11T10:07:53.325Z,94.29
2022-09-11T10:08:53.316Z,94.70
2022-09-11T10:09:53.316Z,94.90
2022-09-11T10:10:53.277Z,94.19
2022-09-11T10:11:53.286Z,93.89
2022-09-11T10:13:07.531Z,93.79
2022-09-11T10:13:53.262Z,93.99
2022-09-11T10:14:53.265Z,94.34
2022-09-11T10:15:53.246Z,94.44
2022-09-11T10:16:53.211Z,94.74
2022-09-11T10:17:53.193Z,94.74
2022-09-11T10:18:53.169Z,95.00
2022-09-11T10:19:53.182Z,95.30
2022-09-11T10:20:53.151Z,95.10
2022-09-11T10:21:53.140Z,94.70
2022-09-11T10:22:53.112Z,94.09
2022-09-11T10:23:53.110Z,94.39
2022-09-11T10:24:53.121Z,94.80
2022-09-11T10:25:53.083Z,94.04
2022-09-11T10:26:53.093Z,94.44
2022-09-11T10:27:53.058Z,94.70
2022-09-11T10:28:53.068Z,94.90
2022-09-11T10:29:53.050Z,94.09
2022-09-11T10:30:53.070Z,94.09
2022-09-11T10:31:52.997Z,93.69
2022-09-11T10:32:52.993Z,93.49
2022-09-11T10:33:52.975Z,93.24
2022-09-11T10:34:52.981Z,92.98
2022-09-11T10:35:52.963Z,93.34
2022-09-11T10:36:52.935Z,93.40
2022-09-11T10:37:52.926Z,92.05
2022-09-11T10:38:52.921Z,91.80
2022-09-11T10:39:52.943Z,91.77
2022-09-11T10:40:52.903Z,88.32
2022-09-11T10:41:52.869Z,83.87
2022-09-11T10:42:52.857Z,83.83
2022-09-11T10:43:52.862Z,82.37
2022-09-11T10:44:52.837Z,83.47
2022-09-11T10:45:52.839Z,83.67
2022-09-11T10:46:52.817Z,83.47
2022-09-11T10:47:52.800Z,82.46
2022-09-11T10:48:52.805Z,82.51
2022-09-11T10:49:52.763Z,83.41
2022-09-11T10:50:52.766Z,84.03
2022-09-11T10:51:52.739Z,81.79
2022-09-11T10:54:25.289Z,84.53
2022-09-11T10:55:26.251Z,85.64
2022-09-11T10:56:26.245Z,85.44
2022-09-11T10:57:26.226Z,84.83
2022-09-11T10:58:26.212Z,83.71
2022-09-11T10:59:26.218Z,80.68
2022-09-11T11:00:26.187Z,78.20
2022-09-11T11:01:26.205Z,77.30
2022-09-11T11:02:26.201Z,76.56
2022-09-11T11:03:26.151Z,76.53
2022-09-11T11:04:26.155Z,74.36
2022-09-11T11:05:26.112Z,73.09
2022-09-11T11:06:26.117Z,73.69
2022-09-11T11:07:26.095Z,72.55
2022-09-11T11:08:26.101Z,71.82
2022-09-11T11:09:30.859Z,70.59
2022-09-11T11:10:26.073Z,71.06
2022-09-11T11:11:26.033Z,72.92
2022-09-11T11:12:26.028Z,72.16
2022-09-11T11:13:26.015Z,71.75
2022-09-11T11:14:26.025Z,69.69
2022-09-11T11:15:30.085Z,71.33
2022-09-11T11:16:25.976Z,71.62
2022-09-11T11:17:25.965Z,72.42
2022-09-11T11:18:25.948Z,73.26
2022-09-11T11:19:25.959Z,74.70
2022-09-11T11:20:25.928Z,75.20
2022-09-11T11:21:25.917Z,74.69
2022-09-11T11:22:25.907Z,72.02
2022-09-11T11:23:25.879Z,71.39
2022-09-11T11:24:25.893Z,71.36
2022-09-11T11:25:25.858Z,72.29
2022-09-11T11:26:25.853Z,72.19
2022-09-11T11:27:25.830Z,71.62
2022-09-11T11:28:25.821Z,74.05
2022-09-11T11:29:25.829Z,74.02
2022-09-11T11:30:25.789Z,72.29
2022-09-11T11:31:25.803Z,72.05
2022-09-11T11:32:25.767Z,72.35
2022-09-11T11:33:25.750Z,70.83
2022-09-11T11:34:25.771Z,70.79
2022-09-11T11:35:25.728Z,69.20
2022-09-11T11:36:25.720Z,69.26
2022-09-11T11:37:25.705Z,69.02
2022-09-11T11:38:25.690Z,67.93
2022-09-11T11:39:25.696Z,68.99
2022-09-11T11:40:25.657Z,70.06
2022-09-11T11:41:25.659Z,70.83
2022-09-11T11:42:25.640Z,70.86
2022-09-11T11:43:25.621Z,72.09
2022-09-11T11:44:25.636Z,73.66
2022-09-11T11:45:25.596Z,74.80
2022-09-11T11:46:25.594Z,76.46
2022-09-11T11:47:25.569Z,74.55
2022-09-11T11:48:25.574Z,72.32
2022-09-11T11:49:25.568Z,70.36
2022-09-11T11:50:29.763Z,69.49
2022-09-11T11:51:25.520Z,70.79
2022-09-11T11:52:25.505Z,73.83
2022-09-11T11:53:25.512Z,74.83
2022-09-11T11:54:25.479Z,73.50
2022-09-11T11:55:25.467Z,75.04
2022-09-11T11:56:25.456Z,75.46
2022-09-11T11:57:25.436Z,75.02
2022-09-11T11:58:25.456Z,74.29
2022-09-11T11:59:25.413Z,72.52
2022-09-11T12:00:25.409Z,72.78
2022-09-11T12:01:25.391Z,71.52
2022-09-11T12:02:25.384Z,71.25
2022-09-11T12:03:25.415Z,70.29
2022-09-11T12:04:25.353Z,66.61
2022-09-11T12:05:25.330Z,69.16
2022-09-11T12:06:25.328Z,69.49
2022-09-11T12:07:25.313Z,70.62
2022-09-11T12:08:25.339Z,72.62
2022-09-11T12:09:25.285Z,70.89
2022-09-11T12:10:25.283Z,69.73
2022-09-11T12:11:25.262Z,67.90
2022-09-11T12:12:25.253Z,67.50
2022-09-11T12:13:25.277Z,68.46
2022-09-11T12:14:25.234Z,70.16
2022-09-11T12:15:25.211Z,72.32
2022-09-11T12:16:25.295Z,73.06
2022-09-11T12:17:25.183Z,72.72
2022-09-11T12:18:25.191Z,72.13
2022-09-11T12:19:25.158Z,72.09
2022-09-11T12:20:25.149Z,72.52
2022-09-11T12:21:25.138Z,72.82
2022-09-11T12:29:54.370Z,73.52
2022-09-11T12:30:55.381Z,72.19
2022-09-11T12:31:55.336Z,71.36
2022-09-11T12:32:55.342Z,70.46
2022-09-11T12:33:55.299Z,70.06
2022-09-11T12:34:55.284Z,70.19
2022-09-11T12:35:55.273Z,71.96
2022-09-11T12:36:55.278Z,72.45
2022-09-11T12:37:55.279Z,73.22
2022-09-11T12:38:55.234Z,74.22
2022-09-11T12:39:55.232Z,72.83
2022-09-11T12:40:55.211Z,73.33
2022-09-11T12:41:55.189Z,72.92
2022-09-11T12:42:55.184Z,72.63
2022-09-11T12:43:55.189Z,73.99
2022-09-11T12:44:55.164Z,71.92
2022-09-11T12:45:55.188Z,72.53
2022-09-11T12:46:55.134Z,73.16
2022-09-11T12:47:55.115Z,74.80
2022-09-11T12:49:17.777Z,75.10
2022-09-11T12:49:55.111Z,75.00
2022-09-11T12:50:55.097Z,75.20
2022-09-11T12:51:55.098Z,74.50
2022-09-11T12:52:55.057Z,74.70
2022-09-11T12:53:55.063Z,74.26
2022-09-11T12:54:55.038Z,74.66
2022-09-11T12:55:55.007Z,74.56
2022-09-11T12:56:54.999Z,74.30
2022-09-11T12:57:54.993Z,74.80
2022-09-11T12:58:55.006Z,74.80
2022-09-11T12:59:54.985Z,74.90
2022-09-11T13:00:54.944Z,75.10
2022-09-11T13:01:54.999Z,75.80
2022-09-11T13:02:54.931Z,77.10
2022-09-11T13:03:54.928Z,75.30
2022-09-11T13:04:54.902Z,74.63
2022-09-11T13:05:54.875Z,75.74
2022-09-11T13:06:54.881Z,74.43
2022-09-11T13:07:54.849Z,75.23
2022-09-11T13:08:54.857Z,75.50
2022-09-11T13:09:54.837Z,74.40
2022-09-11T13:10:54.828Z,74.26
2022-09-11T13:11:54.798Z,73.16
2022-09-11T13:12:54.794Z,73.80
2022-09-11T13:13:54.790Z,74.50
2022-09-11T13:14:54.758Z,73.46
2022-09-11T13:15:54.796Z,74.06
2022-09-11T13:16:54.734Z,72.83
2022-09-11T13:17:54.714Z,71.73
2022-09-11T13:18:54.734Z,71.62
2022-09-11T13:19:54.698Z,71.86
2022-09-11T13:20:54.690Z,71.56
2022-09-11T13:29:53.935Z,71.00
2022-09-11T13:30:54.945Z,71.12
2022-09-11T13:31:54.891Z,70.23
2022-09-11T13:32:54.882Z,70.50
2022-09-11T13:33:54.857Z,70.66
2022-09-11T13:34:54.918Z,70.06
2022-09-11T13:35:54.829Z,68.16
2022-09-11T13:36:56.639Z,67.46
2022-09-11T13:37:54.826Z,66.55
2022-09-11T13:38:54.785Z,68.05
2022-09-11T13:39:54.793Z,68.46
2022-09-11T13:40:54.755Z,68.26
2022-09-11T13:41:54.758Z,68.32
2022-09-11T13:42:54.730Z,67.93
2022-09-11T13:43:58.126Z,66.99
2022-09-11T13:44:54.706Z,66.39
2022-09-11T13:45:54.734Z,67.59
2022-09-11T13:46:54.679Z,66.19
2022-09-11T13:47:54.707Z,66.89
2022-09-11T13:48:54.670Z,66.89
2022-09-11T13:49:54.648Z,66.79